Data for 06/27/2009

Time Sea-Level Adjusted Pressure Absolute Pressure Temperature Relative Humidity Dew Point   
(mb) (inHg) (mb) (inHg) (C) (F) (%) (C) (F)
00:05 1020 30.12 849 25.07 11 51.7 75 6.8 44.2
00:10 1020 30.12 850 25.1 11.3 52.4 75 7 44.6
00:15 1020 30.12 850 25.1 11.4 52.6 73 6.8 44.3
00:20 1020 30.12 850 25.1 11.3 52.3 69 5.9 42.6
00:25 1021 30.15 850 25.1 11.2 52.2 69 5.8 42.4
00:30 1021 30.15 850 25.1 11 51.7 69 5.5 41.9
00:35 1021 30.15 850 25.1 10.6 51 69 5.1 41.2
00:40 1021 30.15 850 25.1 10.5 50.9 67 4.8 40.6
00:45 1021 30.15 850 25.1 10.7 51.3 64 4.2 39.5
00:50 1021 30.15 850 25.1 11.2 52.1 62 4.3 39.7
00:55 1021 30.15 850 25.1 11.1 51.9 63 4.2 39.6
01:00 1021 30.15 850 25.1 11.1 51.9 63 4.4 39.9
01:05 1021 30.15 850 25.1 10.5 50.8 62 3.5 38.3
01:10 1021 30.15 850 25.1 10.2 50.3 61 3.1 37.6
01:15 1021 30.15 850 25.1 9.9 49.9 62 3 37.4
01:20 1021 30.15 851 25.13 10.1 50.2 56 1.7 35
01:25 1021 30.15 851 25.13 10.5 50.8 57 2.3 36.1
01:30 1021 30.15 851 25.13 10.3 50.6 58 2.4 36.4
01:35 1021 30.15 851 25.13 10 50.1 57 1.9 35.4
01:40 1021 30.15 851 25.13 10 50 55 1.5 34.7
01:45 1021 30.15 851 25.13 10 50 55 1.4 34.4
01:50 1021 30.15 851 25.13 10 49.9 54 1.2 34.1
01:55 1021 30.15 851 25.13 9.9 49.9 55 1.5 34.6
02:00 1021 30.15 851 25.13 9.6 49.3 56 1.3 34.4
02:05 1022 30.18 851 25.13 9.4 49 54 0.8 33.4
02:10 1022 30.18 851 25.13 9.4 49 58 1.5 34.7
02:15 1022 30.18 851 25.13 9.2 48.6 57 1.2 34.2
02:20 1022 30.18 851 25.13 9.1 48.4 57 1.2 34.1
02:25 1022 30.18 851 25.13 9 48.2 58 1.2 34.2
02:30 1022 30.18 851 25.13 8.9 48.1 57 0.8 33.5
02:35 1022 30.18 851 25.13 9.2 48.5 57 1.1 33.9
02:40 1022 30.18 851 25.13 9.1 48.4 54 0.4 32.8
02:45 1022 30.18 851 25.13 9.3 48.7 54 0.5 32.9
02:50 1022 30.18 851 25.13 9.2 48.5 56 0.8 33.5
02:55 1022 30.18 851 25.13 8.8 47.8 58 0.9 33.6
03:00 1022 30.18 851 25.13 8.6 47.5 57 0.6 33.1
03:05 1022 30.18 851 25.13 8.8 47.9 53 -0.1 31.9
03:10 1022 30.18 851 25.13 9.2 48.5 53 0.2 32.4
03:15 1022 30.18 851 25.13 9.1 48.3 55 0.6 33
03:20 1022 30.18 851 25.13 8.9 48 54 0.2 32.3
03:25 1022 30.18 851 25.13 8.9 48 55 0.3 32.6
03:30 1022 30.18 851 25.13 9 48.1 54 0.2 32.3
03:35 1022 30.18 851 25.13 9 48.2 53 0.1 32.1
03:40 1022 30.18 851 25.13 8.9 48 54 0.2 32.3
03:45 1022 30.18 852 25.16 8.9 48 53 -0.1 31.8
03:50 1022 30.18 852 25.16 9 48.2 54 0.2 32.4
03:55 1022 30.18 852 25.16 9.1 48.3 52 -0.3 31.5
04:00 1023 30.21 852 25.16 9.3 48.7 53 0.1 32.1
04:05 1023 30.21 852 25.16 9 48.3 54 0.2 32.4
04:10 1023 30.21 852 25.16 8.7 47.7 56 0.4 32.6
04:15 1023 30.21 852 25.16 8.3 46.9 57 0.3 32.5
04:20 1023 30.21 852 25.16 8.4 47.2 53 -0.6 30.9
04:25 1023 30.21 852 25.16 8.9 48 52 -0.4 31.4
04:30 1023 30.21 852 25.16 9 48.1 50 -0.8 30.6
04:35 1023 30.21 852 25.16 9.1 48.4 53 -0 32
04:40 1023 30.21 852 25.16 8.5 47.3 57 0.6 33.1
04:45 1023 30.21 852 25.16 8.1 46.6 55 -0.3 31.5
04:50 1023 30.21 852 25.16 8.3 46.9 55 -0.2 31.6
04:55 1023 30.21 852 25.16 8.3 46.9 55 -0.3 31.4
05:00 1023 30.21 852 25.16 8.1 46.6 57 0.1 32.2
05:05 1023 30.21 852 25.16 7.7 45.9 58 -0 31.9
05:10 1023 30.21 852 25.16 7.8 46.1 56 -0.5 31.2
05:15 1023 30.21 852 25.16 8.1 46.6 55 -0.4 31.3
05:20 1023 30.21 852 25.16 8.2 46.7 55 -0.3 31.4
05:25 1023 30.21 852 25.16 8.2 46.8 54 -0.6 30.9
05:30 1023 30.21 852 25.16 8.2 46.8 55 -0.4 31.4
05:35 1023 30.21 853 25.19 8.1 46.6 55 -0.4 31.3
05:40 1023 30.21 852 25.16 7.9 46.2 56 -0.2 31.6
05:45 1023 30.21 853 25.19 7.7 45.9 55 -0.7 30.8
05:50 1023 30.21 853 25.19 8 46.4 54 -0.8 30.5
05:55 1024 30.24 853 25.19 8 46.5 53 -0.9 30.3
06:00 1024 30.24 853 25.19 8.3 46.9 54 -0.6 31
06:05 1024 30.24 853 25.19 8.1 46.6 55 -0.5 31.2
06:10 1024 30.24 853 25.19 8.1 46.5 53 -0.8 30.5
06:15 1024 30.24 853 25.19 8.4 47.1 53 -0.7 30.7
06:20 1024 30.24 853 25.19 8.3 46.9 54 -0.4 31.3
06:25 1024 30.24 853 25.19 8.2 46.7 55 -0.4 31.3
06:30 1024 30.24 853 25.19 8.1 46.6 57 0.2 32.3
06:35 1024 30.24 853 25.19 7.6 45.7 57 -0.3 31.5
06:40 1024 30.24 853 25.19 7.9 46.2 56 -0.4 31.3
06:45 1024 30.24 853 25.19 7.9 46.2 58 0.1 32.1
06:50 1024 30.24 853 25.19 7.9 46.2 57 -0.1 31.9
06:55 1024 30.24 853 25.19 8.2 46.7 55 -0.3 31.5
07:00 1024 30.24 853 25.19 8.5 47.3 55 -0.1 31.8
07:05 1024 30.24 853 25.19 8.7 47.6 54 -0 32
07:10 1024 30.24 854 25.22 9 48.1 52 -0.3 31.5
07:15 1024 30.24 854 25.22 9.4 49 53 0.3 32.5
07:20 1024 30.24 854 25.22 9.6 49.2 52 0.2 32.3
07:25 1024 30.24 854 25.22 9.8 49.6 51 0.1 32.2
07:30 1025 30.27 854 25.22 10.1 50.2 51 0.4 32.8
07:35 1025 30.27 854 25.22 10.4 50.7 48 -0.1 31.8
07:40 1025 30.27 854 25.22 10.7 51.2 46 -0.4 31.2
07:45 1025 30.27 854 25.22 10.8 51.5 47 0.2 32.3
07:50 1025 30.27 854 25.22 11.3 52.3 46 0.3 32.5
07:55 1025 30.27 854 25.22 11.6 52.9 45 0.2 32.4
08:00 1025 30.27 854 25.22 11.9 53.3 45 0.5 32.9
08:05 1025 30.27 854 25.22 12.1 53.7 46 1 33.8
08:10 1025 30.27 854 25.22 12.7 54.8 47 1.7 35
08:15 1025 30.27 854 25.22 13.2 55.8 42 0.5 32.9
08:20 1025 30.27 854 25.22 13.2 55.7 45 1.6 35
08:25 1025 30.27 854 25.22 13.5 56.3 44 1.5 34.6
08:30 1025 30.27 854 25.22 13.6 56.4 42 1.1 33.9
08:35 1025 30.27 854 25.22 13.6 56.5 42 1.2 34.1
08:40 1025 30.27 855 25.25 14.2 57.5 41 1.2 34.1
08:45 1025 30.27 855 25.25 14.3 57.8 38 0.2 32.4
08:50 1026 30.3 855 25.25 14.3 57.8 34 -1.1 30.1
08:55 1026 30.3 855 25.25 14.2 57.6 36 -0.5 31
09:00 1026 30.3 855 25.25 13.9 57 35 -1.2 29.9
09:05 1026 30.3 855 25.25 14.1 57.5 35 -0.8 30.5
09:10 1026 30.3 855 25.25 14.6 58.3 34 -0.9 30.4
09:15 1026 30.3 855 25.25 14.8 58.6 34 -0.8 30.6
09:20 1026 30.3 855 25.25 14.6 58.3 35 -0.6 31
09:25 1026 30.3 855 25.25 14.8 58.6 35 -0.2 31.6
09:30 1026 30.3 855 25.25 15.2 59.3 35 0 32
09:35 1026 30.3 855 25.25 15.2 59.4 33 -0.9 30.4
09:40 1026 30.3 855 25.25 15 58.9 35 -0.2 31.6
09:45 1026 30.3 855 25.25 15.5 59.9 38 1.5 34.7
09:50 1026 30.3 855 25.25 15.9 60.6 35 0.5 32.9
09:55 1026 30.3 855 25.25 15.8 60.4 35 0.6 33
10:00 1026 30.3 855 25.25 15.8 60.5 34 -0 32
10:05 1026 30.3 855 25.25 16.1 61.1 31 -0.7 30.8
10:10 1026 30.3 855 25.25 16.3 61.4 32 -0.2 31.7
10:15 1026 30.3 855 25.25 16.3 61.3 31 -0.9 30.4
10:20 1026 30.3 855 25.25 16 60.8 32 -0.4 31.2
10:25 1026 30.3 855 25.25 15.8 60.5 31 -1.1 30
10:30 1026 30.3 855 25.25 16.1 61 30 -1.5 29.3
10:35 1026 30.3 855 25.25 15.7 60.3 32 -0.9 30.3
10:40 1026 30.3 855 25.25 16.3 61.3 30 -1.4 29.4
10:45 1026 30.3 855 25.25 16.6 61.8 30 -1.2 29.9
10:50 1026 30.3 855 25.25 16.5 61.7 28 -2 28.4
10:55 1026 30.3 855 25.25 15.9 60.7 30 -1.6 29
11:00 1026 30.3 855 25.25 16.1 61.1 32 -0.5 31.1
11:05 1026 30.3 855 25.25 16.6 61.9 29 -1.6 29.1
11:10 1026 30.3 855 25.25 16.5 61.6 28 -1.8 28.7
11:15 1026 30.3 855 25.25 16.4 61.6 30 -1.1 30.1
11:20 1026 30.3 855 25.25 17.4 63.4 28 -1 30.2
11:25 1026 30.3 855 25.25 17.3 63.2 29 -0.7 30.8
11:30 1026 30.3 855 25.25 17.6 63.6 29 -0.7 30.8
11:35 1026 30.3 855 25.25 17.6 63.7 28 -1.2 29.9
11:40 1026 30.3 855 25.25 17.7 63.9 27 -1.2 29.8
11:45 1026 30.3 855 25.25 17.8 64 28 -1.1 30.1
11:50 1026 30.3 855 25.25 17.8 64.1 27 -1.3 29.6
11:55 1026 30.3 855 25.25 18 64.3 25 -2 28.4
12:00 1026 30.3 855 25.25 18 64.3 27 -1.2 29.8
12:05 1026 30.3 855 25.25 17.8 64 26 -1.7 29
12:10 1026 30.3 855 25.25 17.9 64.2 28 -0.7 30.8
12:15 1026 30.3 855 25.25 17.9 64.2 27 -1.1 30.1
12:20 1026 30.3 855 25.25 18.2 64.8 27 -0.7 30.8
12:25 1026 30.3 855 25.25 18.8 65.8 24 -2 28.4
12:30 1026 30.3 855 25.25 18.4 65.2 24 -2.5 27.5
12:35 1026 30.3 855 25.25 18.6 65.4 25 -1.7 28.9
12:40 1026 30.3 855 25.25 19.4 67 25 -1 30.2
12:45 1026 30.3 855 25.25 19.4 67 26 -0.3 31.4
12:50 1026 30.3 855 25.25 19.5 67.1 25 -0.9 30.3
12:55 1026 30.3 855 25.25 19.6 67.3 24 -1.3 29.7
13:00 1026 30.3 855 25.25 19.1 66.4 24 -2 28.5
13:05 1026 30.3 855 25.25 19.7 67.5 24 -1.2 29.8
13:10 1026 30.3 855 25.25 20.2 68.4 23 -1.5 29.2
13:15 1026 30.3 855 25.25 20 68.1 25 -0.2 31.6
13:20 1026 30.3 855 25.25 20.1 68.1 23 -1.5 29.2
13:25 1026 30.3 855 25.25 20.3 68.6 23 -1.4 29.5
13:30 1025 30.27 855 25.25 20.1 68.1 23 -1.6 29.1
13:35 1025 30.27 855 25.25 18.8 65.8 23 -2.5 27.6
13:40 1025 30.27 855 25.25 19.7 67.5 21 -2.8 27
13:45 1025 30.27 855 25.25 20.5 68.8 21 -2.4 27.7
13:50 1025 30.27 854 25.22 20.8 69.4 22 -1.8 28.7
13:55 1025 30.27 854 25.22 20.6 69.1 21 -2.2 28
14:00 1025 30.27 854 25.22 20.5 68.8 23 -1.4 29.5
14:05 1025 30.27 854 25.22 20.3 68.5 22 -2.2 28
14:10 1025 30.27 854 25.22 19.9 67.8 22 -2.4 27.8
14:15 1025 30.27 854 25.22 20.4 68.6 22 -1.9 28.5
14:20 1025 30.27 854 25.22 21.1 69.9 22 -1.6 29.2
14:25 1025 30.27 854 25.22 20.7 69.3 20 -2.7 27.2
14:30 1025 30.27 854 25.22 20.6 69 22 -1.8 28.8
14:35 1025 30.27 854 25.22 20.8 69.4 22 -1.5 29.3
14:40 1025 30.27 854 25.22 20.7 69.2 23 -1.3 29.6
14:45 1025 30.27 854 25.22 20.9 69.7 21 -1.7 28.9
14:50 1025 30.27 854 25.22 20.9 69.7 22 -1.6 29.1
14:55 1025 30.27 854 25.22 20.8 69.5 22 -1.6 29.1
15:00 1025 30.27 854 25.22 21.3 70.4 20 -2.1 28.3
15:05 1025 30.27 854 25.22 21.9 71.4 21 -1.4 29.5
15:10 1025 30.27 854 25.22 22.3 72.1 18 -2.9 26.7
15:15 1025 30.27 854 25.22 21.3 70.3 22 -0.9 30.4
15:20 1025 30.27 854 25.22 21.1 70 21 -1.6 29.1
15:25 1025 30.27 854 25.22 21.5 70.7 22 -1.2 29.9
15:30 1025 30.27 854 25.22 21.8 71.2 20 -1.9 28.6
15:35 1025 30.27 854 25.22 21.8 71.2 20 -1.8 28.7
15:40 1025 30.27 854 25.22 21.5 70.6 22 -1 30.1
15:45 1025 30.27 854 25.22 22 71.5 20 -1.7 28.9
15:50 1025 30.27 854 25.22 22.1 71.8 19 -2.1 28.2
15:55 1025 30.27 854 25.22 22.2 72 20 -1.8 28.8
16:00 1025 30.27 854 25.22 22.2 71.9 20 -2 28.5
16:05 1025 30.27 854 25.22 22.3 72.1 20 -1.6 29
16:10 1025 30.27 854 25.22 22.2 72 20 -1.3 29.7
16:15 1025 30.27 854 25.22 22.2 72 20 -1.7 29
16:20 1025 30.27 854 25.22 22.5 72.5 20 -1.5 29.2
16:25 1024 30.24 854 25.22 22.1 71.8 20 -1.7 29
16:30 1024 30.24 854 25.22 22 71.5 20 -2 28.3
16:35 1024 30.24 854 25.22 22.8 73 19 -1.7 28.9
16:40 1024 30.24 854 25.22 22.5 72.5 20 -1.4 29.5
16:45 1024 30.24 854 25.22 22.6 72.6 19 -1.9 28.6
16:50 1024 30.24 853 25.19 22.7 72.8 19 -1.9 28.7
16:55 1024 30.24 853 25.19 22.5 72.5 19 -2.2 28
17:00 1024 30.24 853 25.19 22.7 72.9 18 -2.7 27.1
17:05 1024 30.24 853 25.19 23.5 74.2 18 -2 28.5
17:10 1024 30.24 853 25.19 23.4 74.1 19 -1.6 29
17:15 1024 30.24 853 25.19 23.6 74.4 18 -1.8 28.7
17:20 1024 30.24 853 25.19 23.9 75.1 18 -1.3 29.7
17:25 1024 30.24 853 25.19 23.6 74.4 19 -0.9 30.5
17:30 1024 30.24 853 25.19 23.4 74.1 19 -1.4 29.6
17:35 1024 30.24 853 25.19 23.4 74.1 18 -1.8 28.8
17:40 1024 30.24 853 25.19 23.5 74.3 19 -1.4 29.4
17:45 1024 30.24 853 25.19 23.2 73.8 20 -1 30.2
17:50 1024 30.24 853 25.19 23.6 74.5 19 -1.1 30
17:55 1024 30.24 853 25.19 23.8 74.9 18 -1.6 29.2
18:00 1024 30.24 853 25.19 23.5 74.2 19 -1.6 29.1
18:05 1024 30.24 853 25.19 23.6 74.4 19 -1 30.3
18:10 1024 30.24 853 25.19 23.6 74.5 19 -0.8 30.5
18:15 1024 30.24 853 25.19 23.6 74.5 19 -1.4 29.5
18:20 1024 30.24 853 25.19 23.4 74 19 -1.3 29.6
18:25 1024 30.24 853 25.19 23.5 74.3 20 -0.5 31.1
18:30 1024 30.24 853 25.19 23.5 74.2 20 -0.4 31.2
18:35 1024 30.24 853 25.19 23.6 74.5 20 -0.6 30.9
18:40 1024 30.24 853 25.19 23.4 74.1 20 -0.4 31.2
18:45 1024 30.24 853 25.19 23.2 73.8 20 -0.9 30.4
18:50 1024 30.24 853 25.19 23.1 73.6 19 -1.5 29.3
18:55 1023 30.21 853 25.19 22.9 73.3 19 -1.5 29.4
19:00 1023 30.21 853 25.19 22.4 72.3 20 -1.6 29.1
19:05 1023 30.21 853 25.19 22.8 73.1 20 -1.4 29.4
19:10 1023 30.21 853 25.19 23 73.3 19 -1.4 29.6
19:15 1023 30.21 853 25.19 23.1 73.5 20 -0.7 30.8
19:20 1023 30.21 853 25.19 23 73.4 19 -1.4 29.4
19:25 1023 30.21 853 25.19 22.3 72.1 21 -1.2 29.9
19:30 1023 30.21 853 25.19 22.1 71.7 22 -0.4 31.3
19:35 1023 30.21 853 25.19 21.7 71.1 22 -0.9 30.4
19:40 1023 30.21 853 25.19 21.3 70.4 23 -0.4 31.3
19:45 1023 30.21 853 25.19 21.4 70.6 22 -1.1 30
19:50 1023 30.21 853 25.19 21.2 70.2 23 -0.4 31.2
19:55 1023 30.21 853 25.19 21 69.9 24 -0.3 31.5
20:00 1023 30.21 853 25.19 21.1 70 24 -0.1 31.9
20:05 1023 30.21 852 25.16 21.1 69.9 24 -0.1 31.8
20:10 1023 30.21 852 25.16 21 69.7 24 -0.3 31.5
20:15 1023 30.21 852 25.16 20.8 69.5 25 -0 32
20:20 1023 30.21 852 25.16 20.8 69.4 24 -0.3 31.4
20:25 1023 30.21 852 25.16 20.7 69.3 24 -0.1 31.8
20:30 1023 30.21 852 25.16 20.7 69.2 25 -0 32
20:35 1023 30.21 852 25.16 20.6 69 23 -0.9 30.4
20:40 1023 30.21 852 25.16 20.5 68.9 25 -0.2 31.6
20:45 1023 30.21 852 25.16 20.5 68.8 24 -0.4 31.3
20:50 1023 30.21 853 25.19 20.4 68.8 25 -0.3 31.4
20:55 1023 30.21 852 25.16 20.5 68.8 24 -0.5 31.1
21:00 1023 30.21 852 25.16 20.4 68.7 26 0.6 33.1
21:05 1023 30.21 853 25.19 20.2 68.4 28 1 33.9
21:10 1023 30.21 852 25.16 20 68.1 27 0.5 33
21:15 1023 30.21 852 25.16 19.9 67.7 28 0.8 33.5
21:20 1023 30.21 852 25.16 19.3 66.7 40 5.4 41.7
21:25 1023 30.21 852 25.16 17.7 63.9 43 5.1 41.2
21:30 1023 30.21 853 25.19 16.8 62.3 43 4.4 39.9
21:35 1023 30.21 853 25.19 16.4 61.5 43 4 39.3
21:40 1023 30.21 853 25.19 16.2 61.1 44 4.1 39.4
21:45 1023 30.21 853 25.19 16 60.7 46 4.5 40
21:50 1023 30.21 853 25.19 15.8 60.4 47 4.7 40.5
21:55 1023 30.21 853 25.19 15.6 60.1 46 4.2 39.6
22:00 1024 30.24 853 25.19 15.4 59.7 46 3.8 38.9
22:05 1024 30.24 853 25.19 15.3 59.6 46 3.9 39
22:10 1024 30.24 853 25.19 15.3 59.5 47 4 39.2
22:15 1024 30.24 853 25.19 15.1 59.2 49 4.5 40.2
22:20 1024 30.24 853 25.19 15 58.9 46 3.6 38.4
22:25 1024 30.24 853 25.19 14.8 58.7 48 4 39.1
22:30 1024 30.24 853 25.19 14.8 58.6 48 4 39.1
22:35 1024 30.24 853 25.19 14.6 58.3 47 3.6 38.5
22:40 1024 30.24 853 25.19 14.3 57.7 50 3.9 39
22:45 1024 30.24 853 25.19 13.7 56.6 51 3.8 38.8
22:50 1024 30.24 853 25.19 13.4 56.1 52 3.8 38.8
22:55 1024 30.24 853 25.19 13.2 55.8 50 3.1 37.5
23:00 1024 30.24 853 25.19 13.3 56 49 2.9 37.3
23:05 1024 30.24 853 25.19 13.2 55.7 49 2.8 37.1
23:10 1024 30.24 853 25.19 13.4 56.1 47 2.4 36.3
23:15 1024 30.24 853 25.19 13.5 56.2 48 2.8 37
23:20 1024 30.24 853 25.19 13.3 55.9 48 2.7 36.8
23:25 1024 30.24 853 25.19 13.3 55.9 48 2.5 36.6
23:30 1024 30.24 853 25.19 13.3 56 48 2.6 36.6
23:35 1024 30.24 853 25.19 13.2 55.7 49 2.7 36.9
23:40 1024 30.24 853 25.19 13.1 55.5 48 2.4 36.3
23:45 1024 30.24 853 25.19 13.1 55.6 49 2.8 37.1
23:50 1024 30.24 853 25.19 12.8 55.1 49 2.6 36.6
23:55 1024 30.24 853 25.19 12.8 55.1 48 2.3 36.1
24:00 1024 30.24 853 25.19 12.8 55.1 48 2.1 35.7